• Join FlightAware (Why Join?)
  • Login
  • US Flag 
08:00PM EDT


 

Airport Tracker/Info


-or-


 

Live Flight TrackerFlight Track Log ✈ EJA922 ✈ 23-Aug-2013 ✈ KROC - KALB

Flight Track Log - Related Links

Times and Time Zones

All times are in EDT time to prevent confusion due to time zone crossing. See the EJA922 flight status page for this flight to view local times or setup timezone preferences in your user account.

Time Position Orientation Groundspeed Altitude Reporting Facility
EDT Latitude Longitude Course Direction KTS MPH feet Rate Location/Type
08:18PM 43.1239 -77.6761 42° Northeast 167 192 1,400  Level Cleveland Center
08:19PM 43.1625 -77.6289 42° Northeast 249 287 5,900 5,880 Climbing Cleveland Center
08:20PM 43.1444 -77.5756 115° Southeast 267 307 11,000 3,660 Climbing Cleveland Center
08:21PM 43.0939 -77.4842 127° Southeast 290 334 11,900 2,220 Climbing Cleveland Center
08:22PM 43.0681 -77.3775 108° East 300 345 15,500 2,460 Climbing Cleveland Center
08:24PM 43.0517 -77.1378 95° East 326 375 19,000 1,200 Climbing Boston Center
08:25PM 43.0378 -76.9661 96° East 393 452 19,000  Level Boston Center
08:26PM 43.0242 -76.7861 96° East 444 511 19,000  Level Boston Center
08:27PM 43.0119 -76.6092 95° East 465 535 19,000  Level Boston Center
08:28PM 42.9994 -76.4350 96° East 470 541 19,000  Level Boston Center
08:29PM 42.9825 -76.2606 98° East 465 535 19,000  Level Boston Center
08:30PM 42.9675 -76.0836 97° East 465 535 19,000  Level Boston Center
08:31PM 42.9519 -75.9069 97° East 471 542 19,000  Level Boston Center
08:32PM 42.9383 -75.7331 96° East 464 534 19,000  Level Boston Center
08:33PM 42.9225 -75.5619 97° East 464 534 19,000  Level Boston Center
08:34PM 42.9061 -75.3883 97° East 464 534 19,000  Level Boston Center
08:35PM 42.8875 -75.2200 99° East 464 534 19,000 -60 Level Boston Center
08:36PM 42.8747 -75.0494 96° East 459 528 18,900 -900 Descending Boston Center
08:37PM 42.8625 -74.9469 99° East 457 526 17,600 -2,280 Descending Boston Center
08:38PM 42.8472 -74.7850 97° East 427 491 15,300 -2,220 Descending Boston Center
08:39PM 42.8336 -74.6344 97° East 392 451 13,200 -2,100 Descending Boston Center
08:40PM 42.8175 -74.4867 98° East 394 453 11,100 -1,560 Descending Boston Center
08:41PM 42.7844 -74.3611 110° East 333 383 10,100 -1,140 Descending Boston Center
08:42PM 42.7400 -74.2606 121° Southeast 272 313 8,800 -1,620 Descending Boston Center
08:43PM 42.7061 -74.1664 116° Southeast 275 316 6,900 -1,800 Descending Boston Center
08:44PM 42.6681 -74.0750 120° Southeast 280 322 5,200 -1,440 Descending Boston Center
08:45PM 42.6297 -73.9836 120° Southeast 265 305 4,000 -900 Descending Boston Center
08:46PM 42.5975 -73.8983 117° Southeast 261 300 3,500 -540 Descending Boston Center
08:47PM 42.6047 -73.8167 83° East 219 252 3,000 -480 Descending Boston Center
08:48PM 42.6464 -73.8033 13° North 171 197 2,600 -840 Descending Boston Center
08:49PM 42.6861 -73.8042 359° North 112 129 1,400 -960 Descending Boston Center
08:50PM 42.7194 -73.8078 355° North 108 124 700 -720 Descending Boston Center